Time;durP1;ratioP1;P1;durP2;ratioP2;P2;SDS_P1;SDS_P2;PMS_P1;PMS_P2;Temp;Humidity;BMP_temperature;BMP_pressure;BME280_temperature;BME280_humidity;BME280_pressure;Samples;Min_cycle;Max_cycle;Signal;HPM_P1;HPM_P2
2023/06/21 00:00:34;;;;;;;4.07;3.70;;;29.70;44.50;;;;;;5107784;27;45266;-66
2023/06/21 00:03:01;;;;;;;4.13;3.75;;;29.70;44.50;;;;;;5107756;27;45417;-65
2023/06/21 00:05:29;;;;;;;4.55;3.80;;;29.60;44.40;;;;;;5108054;27;45358;-67
2023/06/21 00:07:56;;;;;;;5.45;3.83;;;29.60;44.50;;;;;;5108213;27;45230;-66
2023/06/21 00:10:23;;;;;;;4.07;3.70;;;29.60;44.50;;;;;;5105119;27;45325;-66
2023/06/21 00:12:50;;;;;;;4.45;3.60;;;29.60;44.50;;;;;;5107871;27;45323;-66
2023/06/21 00:15:17;;;;;;;4.22;3.83;;;29.60;44.50;;;;;;5107895;27;45408;-65
2023/06/21 00:17:44;;;;;;;4.22;3.83;;;29.60;44.50;;;;;;5108052;27;45410;-65
2023/06/21 00:20:12;;;;;;;4.13;3.70;;;29.50;44.50;;;;;;5107567;27;46610;-65
2023/06/21 00:22:40;;;;;;;4.30;3.90;;;29.50;44.50;;;;;;5107566;27;45265;-66
2023/06/21 00:25:08;;;;;;;4.13;3.72;;;29.50;44.50;;;;;;5107814;27;45342;-66
2023/06/21 00:27:35;;;;;;;4.15;3.75;;;29.50;44.50;;;;;;5107766;27;45333;-66
2023/06/21 00:30:02;;;;;;;3.92;3.63;;;29.50;44.50;;;;;;5107422;27;45296;-66
2023/06/21 00:32:29;;;;;;;5.88;3.97;;;29.50;44.50;;;;;;5107515;27;45346;-66
2023/06/21 00:34:55;;;;;;;4.53;4.10;;;29.40;44.50;;;;;;5107538;27;45371;-66
2023/06/21 00:37:22;;;;;;;4.20;3.80;;;29.40;44.50;;;;;;5107728;27;45322;-65
2023/06/21 00:39:50;;;;;;;4.53;4.10;;;29.40;44.50;;;;;;5107248;27;46405;-65
2023/06/21 00:42:17;;;;;;;4.07;3.63;;;29.30;44.40;;;;;;5107679;27;45141;-66
2023/06/21 00:44:44;;;;;;;6.78;4.20;;;29.30;44.40;;;;;;5107642;27;45303;-65
2023/06/21 00:47:11;;;;;;;7.25;4.15;;;29.30;44.50;;;;;;5107465;27;45305;-66
2023/06/21 00:49:37;;;;;;;4.32;3.78;;;29.30;44.50;;;;;;5107326;27;45442;-66
2023/06/21 00:52:05;;;;;;;3.88;3.58;;;29.30;44.50;;;;;;5107106;27;45294;-66
2023/06/21 00:54:33;;;;;;;4.75;3.83;;;29.30;44.50;;;;;;5107343;27;45191;-66
2023/06/21 00:57:01;;;;;;;4.30;3.90;;;29.30;44.50;;;;;;5106950;27;45335;-65
2023/06/21 00:59:28;;;;;;;4.15;3.85;;;29.30;44.50;;;;;;5106804;27;45313;-65
2023/06/21 01:01:56;;;;;;;3.83;3.40;;;29.20;44.40;;;;;;5106757;27;45516;-65
2023/06/21 01:04:23;;;;;;;4.72;3.88;;;29.20;44.50;;;;;;5107230;27;45292;-65
2023/06/21 01:06:53;;;;;;;4.18;3.80;;;29.20;44.50;;;;;;5107224;27;45257;-65
2023/06/21 01:09:27;;;;;;;4.22;3.83;;;29.20;44.50;;;;;;5106701;27;46355;-66
2023/06/21 01:11:57;;;;;;;4.32;3.92;;;29.20;44.50;;;;;;5106857;27;45305;-66
2023/06/21 01:14:28;;;;;;;4.00;3.70;;;29.20;44.50;;;;;;5106933;27;45206;-66
2023/06/21 01:16:55;;;;;;;4.43;3.70;;;29.10;44.50;;;;;;5107032;27;45533;-65
2023/06/21 01:19:30;;;;;;;4.35;3.95;;;29.10;44.50;;;;;;5106606;27;46559;-65
2023/06/21 01:21:57;;;;;;;3.50;3.20;;;29.10;44.50;;;;;;5106620;27;45304;-66
2023/06/21 01:24:29;;;;;;;4.50;3.90;;;29.10;44.50;;;;;;5106851;27;45252;-65
2023/06/21 01:27:03;;;;;;;4.03;3.60;;;29.10;44.60;;;;;;5106995;27;45267;-66
2023/06/21 01:29:33;;;;;;;4.28;3.38;;;29.10;44.60;;;;;;5106430;27;46982;-65
2023/06/21 01:32:00;;;;;;;5.18;3.58;;;29.10;44.60;;;;;;5106591;27;45322;-65
2023/06/21 01:34:27;;;;;;;5.28;3.83;;;29.10;44.60;;;;;;5106665;27;45324;-65
2023/06/21 01:36:54;;;;;;;4.20;3.80;;;29.00;44.50;;;;;;5106779;27;45286;-65
2023/06/21 01:39:21;;;;;;;4.55;3.45;;;29.00;44.60;;;;;;5106310;27;45370;-65
2023/06/21 01:41:48;;;;;;;4.30;3.90;;;29.00;44.60;;;;;;5106434;27;45411;-65
2023/06/21 01:44:16;;;;;;;5.18;3.92;;;29.00;44.70;;;;;;5106534;27;45273;-66
2023/06/21 01:46:44;;;;;;;3.83;3.50;;;29.00;44.70;;;;;;5106613;27;45397;-65
2023/06/21 01:49:11;;;;;;;3.63;3.33;;;29.00;44.60;;;;;;5106130;27;46399;-65
2023/06/21 01:51:39;;;;;;;4.60;3.75;;;28.90;44.60;;;;;;5106314;27;45292;-66
2023/06/21 01:54:06;;;;;;;3.88;3.58;;;28.90;44.60;;;;;;5106397;27;45291;-67
2023/06/21 01:56:33;;;;;;;4.20;3.80;;;28.90;44.60;;;;;;5106520;27;45253;-66
2023/06/21 01:59:00;;;;;;;4.13;3.58;;;28.90;44.60;;;;;;5106097;27;45390;-66
2023/06/21 02:01:27;;;;;;;7.40;3.80;;;28.90;44.60;;;;;;5106104;27;45294;-65
2023/06/21 02:03:59;;;;;;;4.03;3.63;;;28.90;44.60;;;;;;5106138;27;45253;-65
2023/06/21 02:06:26;;;;;;;3.63;3.28;;;28.80;44.50;;;;;;5106481;27;45215;-65
2023/06/21 02:08:53;;;;;;;3.85;3.47;;;28.80;44.50;;;;;;5105890;27;45272;-66
2023/06/21 02:11:21;;;;;;;4.55;3.78;;;28.80;44.50;;;;;;5109465;27;45181;-66
2023/06/21 02:13:48;;;;;;;4.07;3.42;;;28.80;44.60;;;;;;5109931;27;45424;-66
2023/06/21 02:16:15;;;;;;;4.38;3.42;;;28.80;44.60;;;;;;5110025;27;45477;-66
2023/06/21 02:18:42;;;;;;;3.95;3.65;;;28.70;44.50;;;;;;5109535;27;47311;-65
2023/06/21 02:21:11;;;;;;;4.80;3.75;;;28.70;44.50;;;;;;5109736;27;45421;-66
2023/06/21 02:23:38;;;;;;;3.92;3.63;;;28.70;44.50;;;;;;5109685;27;45334;-66
2023/06/21 02:26:05;;;;;;;3.67;3.33;;;28.70;44.50;;;;;;5109806;27;45389;-66
2023/06/21 02:28:32;;;;;;;4.20;3.65;;;28.70;44.50;;;;;;5109389;27;47606;-66
2023/06/21 02:30:59;;;;;;;5.40;3.90;;;28.70;44.50;;;;;;5109337;27;45359;-66
2023/06/21 02:33:26;;;;;;;3.78;3.42;;;28.70;44.50;;;;;;5109515;27;45346;-66
2023/06/21 02:35:53;;;;;;;4.18;3.25;;;28.70;44.70;;;;;;5109705;27;45245;-66
2023/06/21 02:38:21;;;;;;;3.85;3.55;;;28.70;44.50;;;;;;5109190;27;46406;-66
2023/06/21 02:40:49;;;;;;;3.70;3.40;;;28.60;44.40;;;;;;5109212;27;45261;-66
2023/06/21 02:43:16;;;;;;;4.25;3.83;;;28.60;45.10;;;;;;5109339;27;45321;-66
2023/06/21 02:45:42;;;;;;;3.65;3.20;;;28.60;44.50;;;;;;5109458;27;45470;-66
2023/06/21 02:48:09;;;;;;;5.35;3.60;;;28.60;44.50;;;;;;5108964;27;45360;-67
2023/06/21 02:50:36;;;;;;;4.40;3.60;;;28.60;44.50;;;;;;5109020;27;45379;-66
2023/06/21 02:53:03;;;;;;;3.63;3.30;;;28.60;44.50;;;;;;5109205;27;45339;-66
2023/06/21 02:55:32;;;;;;;3.70;3.40;;;28.60;44.50;;;;;;5106683;27;45353;-67
2023/06/21 02:57:58;;;;;;;3.92;3.63;;;28.60;44.50;;;;;;5109166;27;47351;-66
2023/06/21 03:00:28;;;;;;;3.92;3.63;;;28.50;44.50;;;;;;5108903;27;45347;-66
2023/06/21 03:02:59;;;;;;;3.95;3.65;;;28.50;44.50;;;;;;5108462;27;45262;-66
2023/06/21 03:05:26;;;;;;;4.72;3.83;;;28.50;44.60;;;;;;5108155;27;45297;-66
2023/06/21 03:07:53;;;;;;;4.03;3.55;;;28.50;44.50;;;;;;5107590;27;45271;-66
2023/06/21 03:10:20;;;;;;;4.07;3.28;;;28.50;44.60;;;;;;5107630;27;45342;-66
2023/06/21 03:12:49;;;;;;;5.80;3.35;;;28.50;44.60;;;;;;5108050;27;45548;-66
2023/06/21 03:15:15;;;;;;;3.78;3.42;;;28.50;44.70;;;;;;5107867;27;45311;-66
2023/06/21 03:17:43;;;;;;;4.22;3.38;;;28.50;45.30;;;;;;5107645;27;45521;-67
2023/06/21 03:20:12;;;;;;;4.00;3.60;;;28.50;44.80;;;;;;5106958;27;45318;-66
2023/06/21 03:22:39;;;;;;;4.03;3.63;;;28.40;44.70;;;;;;5107841;27;45398;-66
2023/06/21 03:25:06;;;;;;;3.85;3.55;;;28.40;44.80;;;;;;5107784;27;45580;-66
2023/06/21 03:27:33;;;;;;;3.97;3.60;;;28.40;44.80;;;;;;5107362;27;46440;-66
2023/06/21 03:30:02;;;;;;;4.38;3.83;;;28.40;44.80;;;;;;5107173;27;45249;-66
2023/06/21 03:32:29;;;;;;;4.45;3.38;;;28.40;44.80;;;;;;5107538;27;45371;-66
2023/06/21 03:34:58;;;;;;;5.13;3.35;;;28.40;44.90;;;;;;5107582;27;45352;-66
2023/06/21 03:37:25;;;;;;;4.40;3.85;;;28.40;44.90;;;;;;5107105;27;45483;-66
2023/06/21 03:39:52;;;;;;;4.65;3.60;;;28.30;45.10;;;;;;5107113;27;45310;-66
2023/06/21 03:42:19;;;;;;;4.07;3.67;;;28.30;45.10;;;;;;5107239;27;45348;-67
2023/06/21 03:44:46;;;;;;;4.05;3.65;;;28.30;45.30;;;;;;5107379;27;45398;-66
2023/06/21 03:47:14;;;;;;;4.20;3.55;;;28.30;45.20;;;;;;5107214;27;45349;-67
2023/06/21 03:49:41;;;;;;;3.95;3.63;;;28.30;45.20;;;;;;5106853;27;45352;-66
2023/06/21 03:52:08;;;;;;;4.13;3.67;;;28.30;45.30;;;;;;5107254;27;45439;-66
2023/06/21 03:54:35;;;;;;;3.92;3.53;;;28.30;45.30;;;;;;5107210;27;45402;-66
2023/06/21 03:57:02;;;;;;;4.57;3.97;;;28.30;45.90;;;;;;5106779;27;45307;-68
2023/06/21 03:59:29;;;;;;;4.80;3.42;;;28.30;45.20;;;;;;5106738;27;45337;-68
2023/06/21 04:01:55;;;;;;;4.20;3.87;;;28.30;45.30;;;;;;5065923;27;1148795;-67
2023/06/21 04:04:24;;;;;;;4.68;3.72;;;28.30;45.20;;;;;;5108310;27;45307;-67
2023/06/21 04:06:51;;;;;;;4.10;3.67;;;28.20;45.20;;;;;;5108042;27;46383;-67
2023/06/21 04:09:18;;;;;;;3.75;3.45;;;28.20;45.20;;;;;;5107814;27;45344;-66
2023/06/21 04:11:46;;;;;;;4.03;3.67;;;28.20;45.10;;;;;;5108091;27;45306;-67
2023/06/21 04:14:14;;;;;;;4.38;3.67;;;28.20;45.10;;;;;;5108203;27;45353;-67
2023/06/21 04:16:41;;;;;;;3.88;3.25;;;28.20;45.20;;;;;;5107948;27;45546;-67
2023/06/21 04:19:08;;;;;;;4.55;3.78;;;28.20;45.10;;;;;;5107651;27;45371;-68
2023/06/21 04:21:36;;;;;;;3.65;3.30;;;28.20;45.10;;;;;;5107707;27;45271;-67
2023/06/21 04:24:03;;;;;;;3.65;3.38;;;28.20;45.10;;;;;;5107943;27;45259;-67
2023/06/21 04:26:29;;;;;;;4.18;3.78;;;28.20;45.20;;;;;;5107490;27;46420;-67
2023/06/21 04:28:56;;;;;;;4.05;3.65;;;28.20;45.20;;;;;;5107412;27;45264;-67
2023/06/21 04:31:24;;;;;;;4.05;3.65;;;28.10;45.10;;;;;;5107632;27;45314;-67
2023/06/21 04:33:53;;;;;;;4.00;3.67;;;28.10;45.20;;;;;;5106957;27;45395;-68
2023/06/21 04:36:20;;;;;;;4.22;3.58;;;28.10;45.20;;;;;;5107571;27;45263;-67
2023/06/21 04:38:48;;;;;;;3.67;3.38;;;28.10;45.10;;;;;;5107285;27;45323;-66
2023/06/21 04:41:15;;;;;;;3.47;3.17;;;28.10;45.10;;;;;;5107606;27;45263;-68
2023/06/21 04:43:42;;;;;;;3.90;3.55;;;28.10;45.10;;;;;;5107625;27;45314;-66
2023/06/21 04:46:09;;;;;;;4.80;3.40;;;28.10;45.10;;;;;;5107381;27;45430;-66
2023/06/21 04:48:37;;;;;;;3.63;3.33;;;28.10;45.10;;;;;;5107189;27;45323;-66
2023/06/21 04:51:04;;;;;;;3.92;3.63;;;28.10;45.10;;;;;;5107534;27;45252;-66
2023/06/21 04:53:32;;;;;;;3.65;3.35;;;28.10;45.00;;;;;;5107533;27;45248;-67
2023/06/21 04:56:00;;;;;;;4.43;3.53;;;28.10;45.20;;;;;;5106972;27;46561;-66
2023/06/21 04:58:27;;;;;;;3.78;3.42;;;28.10;45.10;;;;;;5107074;27;45289;-66
2023/06/21 05:00:54;;;;;;;3.70;3.33;;;28.10;45.10;;;;;;5107065;27;45359;-66
2023/06/21 05:03:21;;;;;;;3.80;3.45;;;28.10;45.00;;;;;;5106961;27;45407;-67
2023/06/21 05:05:48;;;;;;;3.67;3.38;;;28.10;45.00;;;;;;5106876;27;46651;-66
2023/06/21 05:08:15;;;;;;;4.15;3.75;;;28.10;45.00;;;;;;5106872;27;45386;-66
2023/06/21 05:10:41;;;;;;;3.70;3.30;;;28.10;45.00;;;;;;5106809;27;45275;-66
2023/06/21 05:13:09;;;;;;;3.40;3.10;;;28.10;45.10;;;;;;5107118;27;45284;-66
2023/06/21 05:15:36;;;;;;;4.00;3.60;;;28.10;45.10;;;;;;5106621;27;45507;-66
2023/06/21 05:18:05;;;;;;;4.15;3.55;;;28.10;45.00;;;;;;5107046;27;45283;-66
2023/06/21 05:20:32;;;;;;;3.83;3.42;;;28.10;45.00;;;;;;5106838;27;45382;-66
2023/06/21 05:22:59;;;;;;;4.03;3.63;;;28.10;45.00;;;;;;5106902;27;45282;-66
2023/06/21 05:25:25;;;;;;;3.92;3.58;;;28.10;45.00;;;;;;5106560;27;46325;-66
2023/06/21 05:27:52;;;;;;;4.38;3.60;;;28.10;44.90;;;;;;5106643;27;45358;-66
2023/06/21 05:30:20;;;;;;;3.47;3.17;;;28.10;44.90;;;;;;5106583;27;45291;-67
2023/06/21 05:32:47;;;;;;;4.18;3.45;;;28.10;44.90;;;;;;5106919;27;45339;-66
2023/06/21 05:35:14;;;;;;;3.47;3.17;;;28.10;44.90;;;;;;5106262;27;45442;-67
2023/06/21 05:37:41;;;;;;;3.78;3.30;;;28.10;44.90;;;;;;5106594;27;45275;-66
2023/06/21 05:40:10;;;;;;;4.15;3.60;;;28.10;44.90;;;;;;5106453;27;45285;-66
2023/06/21 05:42:37;;;;;;;4.03;3.63;;;28.10;45.00;;;;;;5106840;27;45431;-66
2023/06/21 05:45:05;;;;;;;3.88;3.30;;;28.10;44.90;;;;;;5106175;27;45320;-66
2023/06/21 05:47:33;;;;;;;4.00;3.60;;;28.10;45.00;;;;;;5106205;27;45290;-66
2023/06/21 05:50:00;;;;;;;4.03;3.72;;;28.10;45.00;;;;;;5106369;27;45386;-67
2023/06/21 05:52:27;;;;;;;4.80;3.70;;;28.10;45.00;;;;;;5106409;27;45348;-66
2023/06/21 05:54:54;;;;;;;3.88;3.58;;;28.10;45.00;;;;;;5105911;27;45399;-66
2023/06/21 05:57:20;;;;;;;3.58;3.28;;;28.10;45.10;;;;;;5105931;27;45345;-66
2023/06/21 05:59:47;;;;;;;3.83;3.47;;;28.10;45.00;;;;;;5106162;27;45314;-66
2023/06/21 06:02:14;;;;;;;3.75;3.42;;;28.20;45.10;;;;;;5106047;27;45437;-66
2023/06/21 06:04:48;;;;;;;4.18;3.78;;;28.20;45.10;;;;;;5105934;27;47363;-66
2023/06/21 06:07:15;;;;;;;3.83;3.10;;;28.10;45.10;;;;;;5105958;27;45220;-66
2023/06/21 06:09:41;;;;;;;4.25;3.38;;;28.10;45.00;;;;;;5105834;27;45335;-66
2023/06/21 06:12:09;;;;;;;3.75;3.40;;;28.10;45.00;;;;;;5106351;27;45384;-66
2023/06/21 06:14:35;;;;;;;3.75;3.35;;;28.20;45.00;;;;;;5105762;27;46492;-65
2023/06/21 06:17:02;;;;;;;4.07;3.67;;;28.20;45.10;;;;;;5105822;27;45419;-66
2023/06/21 06:19:29;;;;;;;3.28;2.97;;;28.20;44.90;;;;;;5105928;27;45348;-67
2023/06/21 06:21:57;;;;;;;3.75;3.45;;;28.20;44.90;;;;;;5105909;27;45250;-66
2023/06/21 06:24:25;;;;;;;3.83;3.53;;;28.20;44.90;;;;;;5105551;27;46175;-67
2023/06/21 06:26:52;;;;;;;3.40;3.10;;;28.20;44.90;;;;;;5105661;27;45332;-66
2023/06/21 06:29:18;;;;;;;5.00;3.40;;;28.20;44.80;;;;;;5105641;27;45292;-67
2023/06/21 06:31:45;;;;;;;4.38;3.15;;;28.20;44.70;;;;;;5106081;27;45378;-66
2023/06/21 06:34:12;;;;;;;3.60;3.30;;;28.30;44.70;;;;;;5105398;27;46266;-66
2023/06/21 06:36:39;;;;;;;3.70;3.40;;;28.30;44.80;;;;;;5105669;27;45395;-66
2023/06/21 06:39:07;;;;;;;3.17;2.97;;;28.30;44.80;;;;;;5105824;27;45335;-66
2023/06/21 06:41:34;;;;;;;3.78;3.33;;;28.20;44.70;;;;;;5105774;27;45340;-66
2023/06/21 06:44:01;;;;;;;4.38;3.55;;;28.20;44.80;;;;;;5105628;27;45351;-67
2023/06/21 06:46:28;;;;;;;3.58;3.28;;;28.20;44.80;;;;;;5105304;27;45393;-66
2023/06/21 06:48:54;;;;;;;3.70;3.40;;;28.20;45.00;;;;;;5105412;27;45267;-66
2023/06/21 06:51:21;;;;;;;3.45;3.15;;;28.20;45.00;;;;;;5105721;27;45294;-70
2023/06/21 06:53:48;;;;;;;3.97;3.45;;;28.20;44.90;;;;;;5105297;27;46397;-69
2023/06/21 06:56:17;;;;;;;3.67;3.38;;;28.20;45.00;;;;;;5107099;27;45287;-69
2023/06/21 06:58:43;;;;;;;3.45;3.15;;;28.20;45.00;;;;;;5108859;27;45252;-69
2023/06/21 07:01:10;;;;;;;3.75;3.45;;;28.30;45.10;;;;;;5109061;27;45704;-69
2023/06/21 07:03:37;;;;;;;4.55;4.13;;;28.20;45.00;;;;;;5108365;27;45323;-69
2023/06/21 07:06:04;;;;;;;3.75;3.40;;;28.20;45.10;;;;;;5108858;27;45233;-69
2023/06/21 07:08:31;;;;;;;4.18;3.30;;;28.20;45.10;;;;;;5108908;27;45291;-69
2023/06/21 07:10:58;;;;;;;3.95;3.63;;;28.20;45.10;;;;;;5108832;27;45438;-69
2023/06/21 07:13:26;;;;;;;4.47;3.50;;;28.20;45.20;;;;;;5108649;27;45294;-70
2023/06/21 07:15:53;;;;;;;3.90;3.53;;;28.20;45.30;;;;;;5108683;27;45232;-69
2023/06/21 07:18:20;;;;;;;3.92;3.63;;;28.20;45.50;;;;;;5108724;27;45273;-69
2023/06/21 07:20:47;;;;;;;4.40;3.47;;;28.20;45.40;;;;;;5108789;27;45322;-69
2023/06/21 07:23:14;;;;;;;4.03;3.65;;;28.10;45.30;;;;;;5108290;27;45424;-70
2023/06/21 07:25:40;;;;;;;5.00;3.70;;;28.10;45.60;;;;;;5108404;27;45454;-69
2023/06/21 07:28:07;;;;;;;4.05;3.65;;;28.10;45.50;;;;;;5106156;27;45376;-69
2023/06/21 07:30:37;;;;;;;4.20;3.60;;;28.10;45.40;;;;;;5108500;27;45427;-69
2023/06/21 07:33:04;;;;;;;3.60;3.30;;;28.10;45.50;;;;;;5108255;27;45334;-68
2023/06/21 07:35:30;;;;;;;3.83;3.53;;;28.00;45.40;;;;;;5108459;27;45337;-69
2023/06/21 07:37:57;;;;;;;4.72;3.88;;;28.00;45.40;;;;;;5108355;27;45268;-69
2023/06/21 07:40:24;;;;;;;3.75;3.45;;;28.00;45.30;;;;;;5108416;27;45269;-69
2023/06/21 07:42:51;;;;;;;4.80;3.20;;;28.00;45.50;;;;;;5108084;27;46380;-69
2023/06/21 07:45:18;;;;;;;4.65;3.70;;;27.90;45.40;;;;;;5108074;27;45349;-69
2023/06/21 07:47:46;;;;;;;3.53;3.10;;;27.90;45.50;;;;;;5108250;27;45342;-69
2023/06/21 07:50:13;;;;;;;3.75;3.38;;;28.00;45.50;;;;;;5108166;27;45368;-68
2023/06/21 07:52:40;;;;;;;4.18;3.47;;;27.90;45.50;;;;;;5107870;27;46323;-69
2023/06/21 07:55:10;;;;;;;4.00;3.60;;;27.90;45.60;;;;;;5107998;27;45367;-69
2023/06/21 07:57:38;;;;;;;3.50;3.20;;;27.90;45.60;;;;;;5108010;27;45320;-69
2023/06/21 08:00:11;;;;;;;3.65;3.28;;;27.90;45.60;;;;;;5108124;27;45619;-68
2023/06/21 08:02:38;;;;;;;3.15;2.95;;;27.90;46.30;;;;;;5107523;27;46394;-69
2023/06/21 08:05:06;;;;;;;3.60;3.20;;;27.90;45.80;;;;;;5107885;27;45265;-69
2023/06/21 08:07:33;;;;;;;3.50;3.20;;;27.90;45.80;;;;;;5106806;27;45345;-69
2023/06/21 08:10:00;;;;;;;3.50;3.20;;;27.80;45.70;;;;;;5107838;27;45395;-69
2023/06/21 08:12:27;;;;;;;3.28;2.97;;;27.80;45.80;;;;;;5107553;27;45322;-68
2023/06/21 08:14:53;;;;;;;3.63;3.08;;;27.80;45.80;;;;;;5107667;27;45315;-69
2023/06/21 08:17:20;;;;;;;3.60;3.30;;;27.80;45.90;;;;;;5107809;27;45230;-69
2023/06/21 08:19:47;;;;;;;5.13;3.20;;;27.80;45.90;;;;;;5107767;27;45541;-68
2023/06/21 08:22:15;;;;;;;3.88;3.50;;;27.80;45.90;;;;;;5107401;27;45363;-69
2023/06/21 08:24:42;;;;;;;3.40;3.13;;;27.70;45.90;;;;;;5107655;27;45253;-68
2023/06/21 08:27:09;;;;;;;4.25;3.05;;;27.80;45.90;;;;;;5107517;27;45387;-68
2023/06/21 08:29:36;;;;;;;3.20;2.90;;;27.80;46.00;;;;;;5107792;27;45442;-68
2023/06/21 08:32:04;;;;;;;3.63;3.00;;;27.70;45.90;;;;;;5107666;27;47466;-68
2023/06/21 08:34:31;;;;;;;6.65;3.17;;;27.70;46.00;;;;;;5107265;27;45393;-68
2023/06/21 08:36:58;;;;;;;3.90;3.35;;;27.70;46.20;;;;;;5107563;27;45269;-68
2023/06/21 08:39:26;;;;;;;3.70;3.40;;;27.70;46.20;;;;;;5107492;27;45461;-69
2023/06/21 08:41:53;;;;;;;3.90;3.20;;;27.70;46.10;;;;;;5107079;27;46377;-68
2023/06/21 08:44:20;;;;;;;3.40;3.10;;;27.70;46.10;;;;;;5107215;27;45537;-68
2023/06/21 08:46:48;;;;;;;4.30;3.22;;;27.70;46.00;;;;;;5107266;27;45482;-66
2023/06/21 08:49:17;;;;;;;3.05;2.83;;;27.70;46.00;;;;;;5107507;27;45239;-69
2023/06/21 08:51:44;;;;;;;5.35;3.40;;;27.70;46.20;;;;;;5106890;27;45305;-68
2023/06/21 08:54:11;;;;;;;3.30;2.92;;;27.70;46.30;;;;;;5106911;27;45322;-68
2023/06/21 08:56:45;;;;;;;3.03;2.67;;;27.70;46.50;;;;;;5107164;27;45291;-68
2023/06/21 08:59:13;;;;;;;4.47;3.47;;;27.70;46.30;;;;;;5107260;27;45363;-68
2023/06/21 09:01:43;;;;;;;2.97;2.67;;;27.80;46.40;;;;;;5106776;27;45457;-67
2023/06/21 09:04:11;;;;;;;3.47;2.90;;;27.80;46.30;;;;;;5106957;27;45601;-67
2023/06/21 09:06:38;;;;;;;3.30;3.08;;;27.80;46.90;;;;;;5106935;27;45249;-67
2023/06/21 09:09:05;;;;;;;3.92;3.50;;;27.80;46.30;;;;;;5107030;27;45245;-67
2023/06/21 09:11:32;;;;;;;3.30;3.00;;;27.80;46.20;;;;;;5106484;27;46386;-67
2023/06/21 09:14:00;;;;;;;3.47;3.17;;;27.80;46.20;;;;;;5106724;27;45320;-68
2023/06/21 09:16:27;;;;;;;4.68;3.00;;;27.90;46.20;;;;;;5106786;27;45293;-67
2023/06/21 09:18:53;;;;;;;4.15;3.08;;;27.80;46.10;;;;;;5106666;27;45403;-67
2023/06/21 09:21:20;;;;;;;3.33;3.03;;;27.90;46.70;;;;;;5106460;27;45479;-67
2023/06/21 09:23:47;;;;;;;2.90;2.70;;;27.90;46.10;;;;;;5106534;27;45373;-67
2023/06/21 09:26:14;;;;;;;3.28;2.85;;;27.90;46.00;;;;;;5106985;27;45344;-67
2023/06/21 09:28:41;;;;;;;4.07;2.95;;;27.90;45.90;;;;;;5106735;27;45403;-67
2023/06/21 09:31:09;;;;;;;5.07;3.10;;;28.00;46.50;;;;;;5106251;27;46737;-67
2023/06/21 09:33:36;;;;;;;2.95;2.70;;;28.00;45.90;;;;;;5106509;27;45204;-67
2023/06/21 09:36:04;;;;;;;3.20;2.90;;;28.00;45.80;;;;;;5106502;27;45380;-67
2023/06/21 09:38:33;;;;;;;3.13;2.83;;;28.00;45.70;;;;;;5106576;27;45362;-67
2023/06/21 09:41:01;;;;;;;2.88;2.65;;;28.00;45.70;;;;;;5106186;27;47573;-67
2023/06/21 09:43:27;;;;;;;3.85;3.00;;;28.00;45.70;;;;;;5106321;27;45598;-66
2023/06/21 09:46:02;;;;;;;3.53;2.72;;;28.10;45.70;;;;;;5106447;27;45440;-67
2023/06/21 09:48:31;;;;;;;3.10;2.60;;;28.10;45.60;;;;;;5106477;27;45400;-67
2023/06/21 09:50:58;;;;;;;3.13;2.85;;;28.20;45.60;;;;;;5106164;27;45306;-66
2023/06/21 09:53:25;;;;;;;3.83;2.80;;;28.20;45.50;;;;;;5106147;27;45345;-67
2023/06/21 09:55:52;;;;;;;3.63;3.15;;;28.20;45.40;;;;;;5106608;27;45564;-67
2023/06/21 09:58:19;;;;;;;3.28;2.55;;;28.20;45.30;;;;;;5106321;27;45629;-68
2023/06/21 10:00:45;;;;;;;2.92;2.70;;;28.30;45.30;;;;;;5105963;27;46853;-68
2023/06/21 10:03:12;;;;;;;2.78;2.58;;;28.20;45.10;;;;;;5105820;27;45248;-67
2023/06/21 10:05:55;;;;;;;2.83;2.63;;;28.20;45.20;;;;;;5106494;27;45272;-67
2023/06/21 10:08:25;;;;;;;2.88;2.58;;;28.30;45.10;;;;;;5106183;27;45610;-67
2023/06/21 10:10:53;;;;;;;2.72;2.53;;;28.30;45.00;;;;;;5105665;27;46306;-67
2023/06/21 10:13:25;;;;;;;3.20;2.92;;;28.30;45.00;;;;;;5106332;27;45380;-67
2023/06/21 10:15:52;;;;;;;2.90;2.55;;;28.40;45.10;;;;;;5106169;27;45357;-67
2023/06/21 10:18:20;;;;;;;2.83;2.53;;;28.40;45.10;;;;;;5106330;27;45549;-67
2023/06/21 10:20:47;;;;;;;4.47;2.88;;;28.40;45.30;;;;;;5105863;27;47276;-67
2023/06/21 10:23:15;;;;;;;2.75;2.55;;;28.40;45.20;;;;;;5105693;27;45352;-66
2023/06/21 10:25:43;;;;;;;2.80;2.60;;;28.50;45.20;;;;;;5106057;27;45280;-67
2023/06/21 10:28:10;;;;;;;2.60;2.40;;;28.50;45.10;;;;;;5106146;27;45411;-67
2023/06/21 10:30:37;;;;;;;3.05;2.85;;;28.50;45.10;;;;;;5106490;27;45486;-67
2023/06/21 10:33:04;;;;;;;2.63;2.42;;;28.50;45.80;;;;;;5109444;27;45364;-66
2023/06/21 10:35:33;;;;;;;2.78;2.58;;;28.60;45.10;;;;;;5109585;27;45299;-67
2023/06/21 10:38:03;;;;;;;2.70;2.50;;;28.60;44.90;;;;;;5109681;27;45411;-67
2023/06/21 10:40:31;;;;;;;2.67;2.40;;;28.60;44.80;;;;;;5109069;27;46545;-67
2023/06/21 10:42:58;;;;;;;2.40;2.20;;;28.70;44.70;;;;;;5109131;27;45292;-67
2023/06/21 10:45:27;;;;;;;2.30;2.20;;;28.70;44.80;;;;;;5109378;27;45330;-67
2023/06/21 10:47:54;;;;;;;2.50;2.33;;;28.80;44.90;;;;;;5109399;27;45442;-67
2023/06/21 10:50:21;;;;;;;2.90;2.67;;;28.80;44.50;;;;;;5108777;27;45342;-67
2023/06/21 10:52:48;;;;;;;2.60;2.40;;;28.90;44.40;;;;;;5109075;27;45362;-67
2023/06/21 10:55:15;;;;;;;2.80;2.60;;;28.90;44.60;;;;;;5109396;27;45424;-67
2023/06/21 10:57:43;;;;;;;3.15;2.40;;;28.90;44.70;;;;;;5109353;27;45469;-67
2023/06/21 11:00:11;;;;;;;2.70;2.50;;;29.00;44.60;;;;;;5108888;27;47306;-66
2023/06/21 11:02:37;;;;;;;2.90;2.70;;;29.00;44.60;;;;;;5108502;27;45627;-66
2023/06/21 11:05:15;;;;;;;3.90;2.63;;;29.00;44.60;;;;;;5109028;27;45254;-67
2023/06/21 11:07:48;;;;;;;2.65;2.45;;;29.10;44.70;;;;;;5109184;27;45403;-67
2023/06/21 11:10:14;;;;;;;2.63;2.42;;;29.10;44.60;;;;;;5108501;27;45437;-66
2023/06/21 11:12:43;;;;;;;2.40;2.20;;;29.20;44.50;;;;;;5108716;27;45340;-66
2023/06/21 11:15:10;;;;;;;3.22;2.72;;;29.20;44.50;;;;;;5108902;27;45280;-66
2023/06/21 11:17:37;;;;;;;2.53;2.33;;;29.30;44.50;;;;;;5108950;27;45375;-66
2023/06/21 11:20:20;;;;;;;4.38;2.22;;;29.30;44.50;;;;;;5108340;27;46401;-67
2023/06/21 11:22:56;;;;;;;2.80;2.50;;;29.30;44.80;;;;;;5105701;27;45133;-67
2023/06/21 11:25:23;;;;;;;4.15;2.42;;;29.40;44.80;;;;;;5114707;27;45472;-67
2023/06/21 11:28:29;;;;;;;2.50;2.30;;;29.40;44.70;;;;;;5122140;27;45404;-67
2023/06/21 11:31:11;;;;;;;2.90;2.50;;;29.40;44.60;;;;;;5111255;27;46001;-67
2023/06/21 11:33:54;;;;;;;3.58;2.55;;;29.50;44.70;;;;;;5104202;27;45402;-68
2023/06/21 11:36:25;;;;;;;3.75;2.20;;;29.50;44.70;;;;;;5105796;27;45446;-66
2023/06/21 11:38:53;;;;;;;2.70;2.22;;;29.50;44.60;;;;;;5105892;27;45436;-67
2023/06/21 11:42:04;;;;;;;2.20;2.10;;;29.60;44.60;;;;;;5107544;27;45497;-66
2023/06/21 11:44:33;;;;;;;2.80;2.08;;;29.60;44.60;;;;;;5087111;27;45453;-67
2023/06/21 11:47:15;;;;;;;2.60;2.40;;;29.70;44.50;;;;;;5107255;27;45302;-66
2023/06/21 11:49:46;;;;;;;2.50;2.30;;;29.70;44.50;;;;;;5108138;27;45329;-66
2023/06/21 11:52:14;;;;;;;3.88;2.22;;;29.70;44.40;;;;;;5100403;27;46435;-68
2023/06/21 11:54:40;;;;;;;3.50;2.47;;;29.80;44.30;;;;;;5105363;27;45447;-68
2023/06/21 11:57:07;;;;;;;1.77;1.67;;;29.80;44.50;;;;;;5100057;27;45423;-67
2023/06/21 11:59:36;;;;;;;2.30;1.83;;;29.80;44.50;;;;;;5101494;27;45125;-67
2023/06/21 12:02:11;;;;;;;2.47;2.22;;;29.90;44.40;;;;;;5097372;27;45409;-67
2023/06/21 12:04:39;;;;;;;4.63;2.00;;;29.90;44.20;;;;;;5102538;27;45378;-67
2023/06/21 12:07:06;;;;;;;2.45;2.17;;;30.00;44.20;;;;;;5107685;27;45417;-67
2023/06/21 12:09:33;;;;;;;2.33;2.10;;;30.00;44.20;;;;;;5108003;27;45600;-67
2023/06/21 12:11:59;;;;;;;2.50;2.30;;;30.10;44.10;;;;;;5106129;27;46408;-67
2023/06/21 12:14:26;;;;;;;2.30;1.90;;;30.10;44.00;;;;;;5096649;27;45347;-67
2023/06/21 12:16:55;;;;;;;2.55;1.90;;;30.20;44.00;;;;;;5089022;27;45461;-67
2023/06/21 12:19:22;;;;;;;2.25;2.05;;;30.20;43.90;;;;;;5102921;27;45419;-67
2023/06/21 12:21:48;;;;;;;2.65;2.17;;;30.30;43.90;;;;;;5095303;27;47542;-67
2023/06/21 12:24:15;;;;;;;2.10;1.90;;;30.30;43.90;;;;;;5095181;27;45280;-66
2023/06/21 12:26:49;;;;;;;2.60;2.20;;;30.40;43.80;;;;;;5103119;27;45211;-67
2023/06/21 12:29:16;;;;;;;3.28;2.20;;;30.40;43.80;;;;;;5091008;27;45302;-67
2023/06/21 12:31:44;;;;;;;2.42;2.03;;;30.50;43.80;;;;;;5106985;27;46433;-67
2023/06/21 12:34:16;;;;;;;2.08;1.88;;;30.50;43.60;;;;;;5107148;27;45358;-67
2023/06/21 12:36:44;;;;;;;2.25;1.83;;;30.60;43.70;;;;;;5107221;27;45322;-67
2023/06/21 12:39:12;;;;;;;5.85;2.00;;;30.60;43.50;;;;;;5103017;27;45442;-67
2023/06/21 12:41:40;;;;;;;2.40;2.22;;;30.70;43.50;;;;;;5107269;27;46834;-67
2023/06/21 12:44:07;;;;;;;2.28;2.00;;;30.70;43.70;;;;;;5107214;27;45354;-67
2023/06/21 12:46:37;;;;;;;4.18;1.90;;;30.80;43.90;;;;;;5107099;27;45357;-67
2023/06/21 12:49:04;;;;;;;2.33;1.80;;;30.80;43.40;;;;;;5107758;27;45380;-66
2023/06/21 12:51:33;;;;;;;3.20;1.95;;;30.80;43.50;;;;;;5106873;27;46394;-67